sensor_id;sensor_type;location;lat;lon;timestamp;P1;durP1;ratioP1;P2;durP2;ratioP2
673;SDS011;319;48.764;9.174;2022-11-21T00:01:12;1.40;;;1.40;;
673;SDS011;319;48.764;9.174;2022-11-21T00:03:41;1.50;;;1.50;;
673;SDS011;319;48.764;9.174;2022-11-21T00:06:08;1.57;;;1.57;;
673;SDS011;319;48.764;9.174;2022-11-21T00:08:34;1.60;;;1.60;;
673;SDS011;319;48.764;9.174;2022-11-21T00:11:01;1.40;;;1.40;;
673;SDS011;319;48.764;9.174;2022-11-21T00:13:29;1.50;;;1.50;;
673;SDS011;319;48.764;9.174;2022-11-21T00:16:01;1.60;;;1.60;;
673;SDS011;319;48.764;9.174;2022-11-21T00:18:28;1.50;;;1.50;;
673;SDS011;319;48.764;9.174;2022-11-21T00:20:55;1.43;;;1.43;;
673;SDS011;319;48.764;9.174;2022-11-21T00:23:22;1.70;;;1.70;;
673;SDS011;319;48.764;9.174;2022-11-21T00:25:52;1.40;;;1.40;;
673;SDS011;319;48.764;9.174;2022-11-21T00:28:18;1.57;;;1.57;;
673;SDS011;319;48.764;9.174;2022-11-21T00:30:47;1.50;;;1.50;;
673;SDS011;319;48.764;9.174;2022-11-21T00:33:13;1.30;;;1.30;;
673;SDS011;319;48.764;9.174;2022-11-21T00:35:40;1.60;;;1.60;;
673;SDS011;319;48.764;9.174;2022-11-21T00:38:07;1.40;;;1.40;;
673;SDS011;319;48.764;9.174;2022-11-21T00:40:33;1.50;;;1.50;;
673;SDS011;319;48.764;9.174;2022-11-21T00:43:00;1.80;;;1.80;;
673;SDS011;319;48.764;9.174;2022-11-21T00:45:27;1.40;;;1.40;;
673;SDS011;319;48.764;9.174;2022-11-21T00:47:55;3.10;;;3.00;;
673;SDS011;319;48.764;9.174;2022-11-21T00:50:22;4.50;;;4.40;;
673;SDS011;319;48.764;9.174;2022-11-21T00:52:48;4.30;;;4.20;;
673;SDS011;319;48.764;9.174;2022-11-21T00:55:20;4.60;;;4.50;;
673;SDS011;319;48.764;9.174;2022-11-21T00:57:47;3.20;;;3.10;;
673;SDS011;319;48.764;9.174;2022-11-21T01:00:14;1.40;;;1.40;;
673;SDS011;319;48.764;9.174;2022-11-21T01:02:41;1.40;;;1.40;;
673;SDS011;319;48.764;9.174;2022-11-21T01:05:09;1.60;;;1.60;;
673;SDS011;319;48.764;9.174;2022-11-21T01:07:36;1.30;;;1.30;;
673;SDS011;319;48.764;9.174;2022-11-21T01:10:03;1.20;;;1.20;;
673;SDS011;319;48.764;9.174;2022-11-21T01:12:31;1.30;;;1.30;;
673;SDS011;319;48.764;9.174;2022-11-21T01:14:58;1.30;;;1.30;;
673;SDS011;319;48.764;9.174;2022-11-21T01:17:24;1.47;;;1.47;;
673;SDS011;319;48.764;9.174;2022-11-21T01:19:51;1.50;;;1.50;;
673;SDS011;319;48.764;9.174;2022-11-21T01:22:19;1.50;;;1.50;;
673;SDS011;319;48.764;9.174;2022-11-21T01:24:47;1.40;;;1.40;;
673;SDS011;319;48.764;9.174;2022-11-21T01:27:13;1.50;;;1.50;;
673;SDS011;319;48.764;9.174;2022-11-21T01:29:40;1.40;;;1.40;;
673;SDS011;319;48.764;9.174;2022-11-21T01:32:07;1.30;;;1.30;;
673;SDS011;319;48.764;9.174;2022-11-21T01:34:34;1.40;;;1.40;;
673;SDS011;319;48.764;9.174;2022-11-21T01:37:01;1.50;;;1.50;;
673;SDS011;319;48.764;9.174;2022-11-21T01:39:30;1.30;;;1.30;;
673;SDS011;319;48.764;9.174;2022-11-21T01:41:56;1.40;;;1.40;;
673;SDS011;319;48.764;9.174;2022-11-21T01:44:24;1.40;;;1.40;;
673;SDS011;319;48.764;9.174;2022-11-21T01:46:52;1.50;;;1.50;;
673;SDS011;319;48.764;9.174;2022-11-21T01:49:20;1.50;;;1.50;;
673;SDS011;319;48.764;9.174;2022-11-21T01:51:51;1.37;;;1.37;;
673;SDS011;319;48.764;9.174;2022-11-21T01:54:23;1.30;;;1.30;;
673;SDS011;319;48.764;9.174;2022-11-21T01:56:57;1.30;;;1.30;;
673;SDS011;319;48.764;9.174;2022-11-21T01:59:28;1.40;;;1.40;;
673;SDS011;319;48.764;9.174;2022-11-21T02:01:57;1.40;;;1.40;;
673;SDS011;319;48.764;9.174;2022-11-21T02:04:27;1.40;;;1.40;;
673;SDS011;319;48.764;9.174;2022-11-21T02:06:57;1.30;;;1.30;;
673;SDS011;319;48.764;9.174;2022-11-21T02:09:26;1.47;;;1.47;;
673;SDS011;319;48.764;9.174;2022-11-21T02:11:56;1.40;;;1.40;;
673;SDS011;319;48.764;9.174;2022-11-21T02:14:26;1.73;;;1.73;;
673;SDS011;319;48.764;9.174;2022-11-21T02:16:54;1.40;;;1.40;;
673;SDS011;319;48.764;9.174;2022-11-21T02:19:26;1.40;;;1.40;;
673;SDS011;319;48.764;9.174;2022-11-21T02:21:59;1.47;;;1.47;;
673;SDS011;319;48.764;9.174;2022-11-21T02:24:32;1.40;;;1.40;;
673;SDS011;319;48.764;9.174;2022-11-21T02:27:06;1.40;;;1.40;;
673;SDS011;319;48.764;9.174;2022-11-21T02:29:33;1.40;;;1.40;;
673;SDS011;319;48.764;9.174;2022-11-21T02:32:02;1.40;;;1.40;;
673;SDS011;319;48.764;9.174;2022-11-21T02:34:30;1.40;;;1.40;;
673;SDS011;319;48.764;9.174;2022-11-21T02:36:57;1.40;;;1.40;;
673;SDS011;319;48.764;9.174;2022-11-21T02:39:25;1.40;;;1.40;;
673;SDS011;319;48.764;9.174;2022-11-21T02:41:56;1.40;;;1.40;;
673;SDS011;319;48.764;9.174;2022-11-21T02:44:30;1.30;;;1.30;;
673;SDS011;319;48.764;9.174;2022-11-21T02:47:03;1.40;;;1.40;;
673;SDS011;319;48.764;9.174;2022-11-21T02:49:37;1.30;;;1.30;;
673;SDS011;319;48.764;9.174;2022-11-21T02:52:07;1.33;;;1.33;;
673;SDS011;319;48.764;9.174;2022-11-21T02:54:34;1.30;;;1.30;;
673;SDS011;319;48.764;9.174;2022-11-21T02:57:00;1.40;;;1.40;;
673;SDS011;319;48.764;9.174;2022-11-21T02:59:27;1.40;;;1.40;;
673;SDS011;319;48.764;9.174;2022-11-21T03:01:55;1.50;;;1.50;;
673;SDS011;319;48.764;9.174;2022-11-21T03:04:23;1.30;;;1.30;;
673;SDS011;319;48.764;9.174;2022-11-21T03:06:50;1.30;;;1.30;;
673;SDS011;319;48.764;9.174;2022-11-21T03:09:17;1.40;;;1.40;;
673;SDS011;319;48.764;9.174;2022-11-21T03:11:44;1.40;;;1.40;;
673;SDS011;319;48.764;9.174;2022-11-21T03:14:12;1.40;;;1.40;;
673;SDS011;319;48.764;9.174;2022-11-21T03:16:40;1.40;;;1.40;;
673;SDS011;319;48.764;9.174;2022-11-21T03:19:07;4.40;;;4.30;;
673;SDS011;319;48.764;9.174;2022-11-21T03:21:33;5.00;;;4.90;;
673;SDS011;319;48.764;9.174;2022-11-21T03:24:00;7.03;;;6.83;;
673;SDS011;319;48.764;9.174;2022-11-21T03:26:27;7.60;;;7.40;;
673;SDS011;319;48.764;9.174;2022-11-21T03:28:53;8.50;;;8.30;;
673;SDS011;319;48.764;9.174;2022-11-21T03:31:20;9.50;;;9.30;;
673;SDS011;319;48.764;9.174;2022-11-21T03:33:48;9.43;;;9.23;;
673;SDS011;319;48.764;9.174;2022-11-21T03:36:15;9.43;;;9.23;;
673;SDS011;319;48.764;9.174;2022-11-21T03:38:42;7.83;;;7.63;;
673;SDS011;319;48.764;9.174;2022-11-21T03:41:08;8.93;;;8.73;;
673;SDS011;319;48.764;9.174;2022-11-21T03:43:49;9.67;;;9.47;;
673;SDS011;319;48.764;9.174;2022-11-21T03:46:16;9.30;;;9.10;;
673;SDS011;319;48.764;9.174;2022-11-21T03:48:43;9.20;;;9.00;;
673;SDS011;319;48.764;9.174;2022-11-21T03:51:11;9.30;;;9.10;;
673;SDS011;319;48.764;9.174;2022-11-21T03:53:38;9.10;;;8.90;;
673;SDS011;319;48.764;9.174;2022-11-21T03:56:04;9.33;;;9.13;;
673;SDS011;319;48.764;9.174;2022-11-21T03:58:31;8.80;;;8.60;;
673;SDS011;319;48.764;9.174;2022-11-21T04:00:58;8.73;;;8.53;;
673;SDS011;319;48.764;9.174;2022-11-21T04:03:25;8.73;;;8.53;;
673;SDS011;319;48.764;9.174;2022-11-21T04:05:52;8.60;;;8.40;;
673;SDS011;319;48.764;9.174;2022-11-21T04:08:20;7.60;;;7.40;;
673;SDS011;319;48.764;9.174;2022-11-21T04:10:47;5.80;;;5.70;;
673;SDS011;319;48.764;9.174;2022-11-21T04:13:14;9.43;;;9.23;;
673;SDS011;319;48.764;9.174;2022-11-21T04:15:41;10.80;;;10.50;;
673;SDS011;319;48.764;9.174;2022-11-21T04:18:08;10.30;;;10.10;;
673;SDS011;319;48.764;9.174;2022-11-21T04:20:35;10.10;;;9.90;;
673;SDS011;319;48.764;9.174;2022-11-21T04:23:02;8.70;;;8.50;;
673;SDS011;319;48.764;9.174;2022-11-21T04:25:31;7.40;;;7.20;;
673;SDS011;319;48.764;9.174;2022-11-21T04:27:58;9.23;;;9.03;;
673;SDS011;319;48.764;9.174;2022-11-21T04:30:26;9.00;;;8.80;;
673;SDS011;319;48.764;9.174;2022-11-21T04:32:53;8.60;;;8.40;;
673;SDS011;319;48.764;9.174;2022-11-21T04:35:21;9.30;;;9.10;;
673;SDS011;319;48.764;9.174;2022-11-21T04:37:49;7.00;;;6.80;;
673;SDS011;319;48.764;9.174;2022-11-21T04:40:16;8.37;;;8.17;;
673;SDS011;319;48.764;9.174;2022-11-21T04:42:45;8.37;;;8.17;;
673;SDS011;319;48.764;9.174;2022-11-21T04:45:13;7.63;;;7.43;;
673;SDS011;319;48.764;9.174;2022-11-21T04:47:42;8.47;;;8.27;;
673;SDS011;319;48.764;9.174;2022-11-21T04:50:11;8.87;;;8.67;;
673;SDS011;319;48.764;9.174;2022-11-21T04:52:40;8.00;;;7.80;;
673;SDS011;319;48.764;9.174;2022-11-21T04:55:07;8.07;;;7.87;;
673;SDS011;319;48.764;9.174;2022-11-21T04:57:34;7.60;;;7.40;;
673;SDS011;319;48.764;9.174;2022-11-21T05:00:03;7.70;;;7.50;;
673;SDS011;319;48.764;9.174;2022-11-21T05:02:31;9.03;;;8.83;;
673;SDS011;319;48.764;9.174;2022-11-21T05:04:58;9.60;;;9.40;;
673;SDS011;319;48.764;9.174;2022-11-21T05:07:25;6.33;;;6.23;;
673;SDS011;319;48.764;9.174;2022-11-21T05:09:51;8.80;;;8.60;;
673;SDS011;319;48.764;9.174;2022-11-21T05:12:18;7.80;;;7.60;;
673;SDS011;319;48.764;9.174;2022-11-21T05:15:04;8.10;;;7.90;;
673;SDS011;319;48.764;9.174;2022-11-21T05:17:31;9.23;;;9.03;;
673;SDS011;319;48.764;9.174;2022-11-21T05:19:58;8.80;;;8.60;;
673;SDS011;319;48.764;9.174;2022-11-21T05:22:25;6.60;;;6.50;;
673;SDS011;319;48.764;9.174;2022-11-21T05:24:52;6.40;;;6.30;;
673;SDS011;319;48.764;9.174;2022-11-21T05:27:19;5.37;;;5.27;;
673;SDS011;319;48.764;9.174;2022-11-21T05:29:46;7.00;;;6.80;;
673;SDS011;319;48.764;9.174;2022-11-21T05:32:14;6.00;;;5.90;;
673;SDS011;319;48.764;9.174;2022-11-21T05:34:42;5.70;;;5.60;;
673;SDS011;319;48.764;9.174;2022-11-21T05:37:08;5.30;;;5.20;;
673;SDS011;319;48.764;9.174;2022-11-21T05:39:35;5.50;;;5.40;;
673;SDS011;319;48.764;9.174;2022-11-21T05:42:02;6.10;;;6.00;;
673;SDS011;319;48.764;9.174;2022-11-21T05:44:29;6.20;;;6.10;;
673;SDS011;319;48.764;9.174;2022-11-21T05:46:55;6.20;;;6.10;;
673;SDS011;319;48.764;9.174;2022-11-21T05:49:23;5.60;;;5.50;;
673;SDS011;319;48.764;9.174;2022-11-21T05:51:50;6.10;;;6.00;;
673;SDS011;319;48.764;9.174;2022-11-21T05:54:17;6.03;;;5.93;;
673;SDS011;319;48.764;9.174;2022-11-21T05:56:44;6.20;;;6.10;;
673;SDS011;319;48.764;9.174;2022-11-21T05:59:11;4.90;;;4.80;;
673;SDS011;319;48.764;9.174;2022-11-21T06:01:38;6.10;;;6.00;;
673;SDS011;319;48.764;9.174;2022-11-21T06:04:23;4.70;;;4.60;;
673;SDS011;319;48.764;9.174;2022-11-21T06:06:50;7.17;;;6.97;;
673;SDS011;319;48.764;9.174;2022-11-21T06:09:17;6.40;;;6.30;;
673;SDS011;319;48.764;9.174;2022-11-21T06:11:44;7.30;;;7.10;;
673;SDS011;319;48.764;9.174;2022-11-21T06:14:11;6.87;;;6.70;;
673;SDS011;319;48.764;9.174;2022-11-21T06:16:38;6.40;;;6.30;;
673;SDS011;319;48.764;9.174;2022-11-21T06:19:04;5.00;;;4.90;;
673;SDS011;319;48.764;9.174;2022-11-21T06:21:32;6.93;;;6.73;;
673;SDS011;319;48.764;9.174;2022-11-21T06:24:01;5.80;;;5.70;;
673;SDS011;319;48.764;9.174;2022-11-21T06:26:28;6.07;;;5.97;;
673;SDS011;319;48.764;9.174;2022-11-21T06:28:54;5.70;;;5.60;;
673;SDS011;319;48.764;9.174;2022-11-21T06:31:22;6.10;;;6.00;;
673;SDS011;319;48.764;9.174;2022-11-21T06:33:50;5.23;;;5.13;;
673;SDS011;319;48.764;9.174;2022-11-21T06:36:18;6.53;;;6.43;;
673;SDS011;319;48.764;9.174;2022-11-21T06:38:46;5.33;;;5.23;;
673;SDS011;319;48.764;9.174;2022-11-21T06:41:13;4.87;;;4.77;;
673;SDS011;319;48.764;9.174;2022-11-21T06:43:41;6.00;;;5.90;;
673;SDS011;319;48.764;9.174;2022-11-21T06:46:08;5.53;;;5.43;;
673;SDS011;319;48.764;9.174;2022-11-21T06:48:35;5.30;;;5.20;;
673;SDS011;319;48.764;9.174;2022-11-21T06:51:03;5.30;;;5.20;;
673;SDS011;319;48.764;9.174;2022-11-21T06:53:30;5.90;;;5.80;;
673;SDS011;319;48.764;9.174;2022-11-21T06:55:59;6.00;;;5.90;;
673;SDS011;319;48.764;9.174;2022-11-21T06:58:26;4.90;;;4.80;;
673;SDS011;319;48.764;9.174;2022-11-21T07:00:53;4.80;;;4.70;;
673;SDS011;319;48.764;9.174;2022-11-21T07:03:20;5.90;;;5.80;;
673;SDS011;319;48.764;9.174;2022-11-21T07:05:47;4.43;;;4.33;;
673;SDS011;319;48.764;9.174;2022-11-21T07:08:14;4.40;;;4.30;;
673;SDS011;319;48.764;9.174;2022-11-21T07:10:41;4.60;;;4.50;;
673;SDS011;319;48.764;9.174;2022-11-21T07:13:10;5.53;;;5.43;;
673;SDS011;319;48.764;9.174;2022-11-21T07:15:52;6.10;;;6.00;;
673;SDS011;319;48.764;9.174;2022-11-21T07:18:19;6.00;;;5.90;;
673;SDS011;319;48.764;9.174;2022-11-21T07:20:47;5.27;;;5.17;;
673;SDS011;319;48.764;9.174;2022-11-21T07:23:14;6.20;;;6.10;;
673;SDS011;319;48.764;9.174;2022-11-21T07:25:41;5.70;;;5.60;;
673;SDS011;319;48.764;9.174;2022-11-21T07:28:08;4.97;;;4.87;;
673;SDS011;319;48.764;9.174;2022-11-21T07:30:36;6.30;;;6.20;;
673;SDS011;319;48.764;9.174;2022-11-21T07:33:04;5.70;;;5.60;;
673;SDS011;319;48.764;9.174;2022-11-21T07:35:33;5.10;;;5.00;;
673;SDS011;319;48.764;9.174;2022-11-21T07:38:00;5.80;;;5.70;;
673;SDS011;319;48.764;9.174;2022-11-21T07:40:28;6.10;;;6.00;;
673;SDS011;319;48.764;9.174;2022-11-21T07:42:59;5.40;;;5.30;;
673;SDS011;319;48.764;9.174;2022-11-21T07:45:26;5.90;;;5.80;;
673;SDS011;319;48.764;9.174;2022-11-21T07:47:57;5.37;;;5.27;;
673;SDS011;319;48.764;9.174;2022-11-21T07:50:24;5.43;;;5.33;;
673;SDS011;319;48.764;9.174;2022-11-21T07:52:52;4.83;;;4.73;;
673;SDS011;319;48.764;9.174;2022-11-21T07:55:22;5.50;;;5.40;;
673;SDS011;319;48.764;9.174;2022-11-21T07:57:56;5.33;;;5.23;;
673;SDS011;319;48.764;9.174;2022-11-21T08:00:23;4.90;;;4.80;;
673;SDS011;319;48.764;9.174;2022-11-21T08:02:50;5.53;;;5.43;;
673;SDS011;319;48.764;9.174;2022-11-21T08:05:18;4.43;;;4.33;;
673;SDS011;319;48.764;9.174;2022-11-21T08:07:45;4.40;;;4.30;;
673;SDS011;319;48.764;9.174;2022-11-21T08:10:12;5.60;;;5.50;;
673;SDS011;319;48.764;9.174;2022-11-21T08:12:40;5.67;;;5.57;;
673;SDS011;319;48.764;9.174;2022-11-21T08:15:07;5.70;;;5.60;;
673;SDS011;319;48.764;9.174;2022-11-21T08:17:34;5.00;;;4.90;;
673;SDS011;319;48.764;9.174;2022-11-21T08:20:00;5.60;;;5.50;;
673;SDS011;319;48.764;9.174;2022-11-21T08:22:29;4.87;;;4.77;;
673;SDS011;319;48.764;9.174;2022-11-21T08:24:56;5.17;;;5.07;;
673;SDS011;319;48.764;9.174;2022-11-21T08:27:23;5.03;;;4.93;;
673;SDS011;319;48.764;9.174;2022-11-21T08:29:49;4.93;;;4.83;;
673;SDS011;319;48.764;9.174;2022-11-21T08:32:16;5.50;;;5.40;;
673;SDS011;319;48.764;9.174;2022-11-21T08:34:43;5.50;;;5.40;;
673;SDS011;319;48.764;9.174;2022-11-21T08:37:10;5.10;;;5.00;;
673;SDS011;319;48.764;9.174;2022-11-21T08:39:38;5.57;;;5.47;;
673;SDS011;319;48.764;9.174;2022-11-21T08:42:04;5.40;;;5.30;;
673;SDS011;319;48.764;9.174;2022-11-21T08:44:32;5.20;;;5.10;;
673;SDS011;319;48.764;9.174;2022-11-21T08:46:59;5.47;;;5.37;;
673;SDS011;319;48.764;9.174;2022-11-21T08:49:27;4.90;;;4.80;;
673;SDS011;319;48.764;9.174;2022-11-21T08:51:54;5.27;;;5.17;;
673;SDS011;319;48.764;9.174;2022-11-21T08:54:22;4.70;;;4.60;;
673;SDS011;319;48.764;9.174;2022-11-21T08:56:51;4.17;;;4.07;;
673;SDS011;319;48.764;9.174;2022-11-21T08:59:18;4.40;;;4.30;;
673;SDS011;319;48.764;9.174;2022-11-21T09:01:45;3.10;;;3.00;;
673;SDS011;319;48.764;9.174;2022-11-21T09:04:12;2.77;;;2.77;;
673;SDS011;319;48.764;9.174;2022-11-21T09:06:39;2.37;;;2.37;;
673;SDS011;319;48.764;9.174;2022-11-21T09:09:06;1.50;;;1.50;;
673;SDS011;319;48.764;9.174;2022-11-21T09:11:33;1.30;;;1.30;;
673;SDS011;319;48.764;9.174;2022-11-21T09:14:03;1.27;;;1.27;;
673;SDS011;319;48.764;9.174;2022-11-21T09:16:47;1.20;;;1.20;;
673;SDS011;319;48.764;9.174;2022-11-21T09:19:31;1.10;;;1.10;;
673;SDS011;319;48.764;9.174;2022-11-21T09:21:58;1.20;;;1.20;;
673;SDS011;319;48.764;9.174;2022-11-21T09:24:25;4.20;;;4.10;;
673;SDS011;319;48.764;9.174;2022-11-21T09:26:52;5.23;;;5.13;;
673;SDS011;319;48.764;9.174;2022-11-21T09:29:20;4.50;;;4.40;;
673;SDS011;319;48.764;9.174;2022-11-21T09:31:46;2.03;;;2.03;;
673;SDS011;319;48.764;9.174;2022-11-21T09:34:13;6.60;;;6.43;;
673;SDS011;319;48.764;9.174;2022-11-21T09:36:40;5.17;;;5.07;;
673;SDS011;319;48.764;9.174;2022-11-21T09:39:07;5.30;;;5.20;;
673;SDS011;319;48.764;9.174;2022-11-21T09:41:35;2.90;;;2.90;;
673;SDS011;319;48.764;9.174;2022-11-21T09:44:24;2.83;;;2.83;;
673;SDS011;319;48.764;9.174;2022-11-21T09:47:17;2.80;;;2.80;;
673;SDS011;319;48.764;9.174;2022-11-21T09:49:48;3.00;;;2.93;;
673;SDS011;319;48.764;9.174;2022-11-21T09:52:19;3.20;;;3.10;;
673;SDS011;319;48.764;9.174;2022-11-21T09:54:49;2.67;;;2.67;;
673;SDS011;319;48.764;9.174;2022-11-21T09:57:22;3.20;;;3.10;;
673;SDS011;319;48.764;9.174;2022-11-21T09:59:52;3.00;;;2.90;;
673;SDS011;319;48.764;9.174;2022-11-21T10:02:21;3.30;;;3.20;;
673;SDS011;319;48.764;9.174;2022-11-21T10:04:49;3.00;;;2.90;;
673;SDS011;319;48.764;9.174;2022-11-21T10:07:19;3.00;;;2.90;;
673;SDS011;319;48.764;9.174;2022-11-21T10:09:57;2.50;;;2.50;;
673;SDS011;319;48.764;9.174;2022-11-21T10:12:39;3.10;;;3.00;;
673;SDS011;319;48.764;9.174;2022-11-21T10:15:22;2.50;;;2.50;;
673;SDS011;319;48.764;9.174;2022-11-21T10:18:04;2.60;;;2.60;;
673;SDS011;319;48.764;9.174;2022-11-21T10:20:49;2.70;;;2.70;;
673;SDS011;319;48.764;9.174;2022-11-21T10:23:40;2.70;;;2.70;;
673;SDS011;319;48.764;9.174;2022-11-21T10:26:20;2.00;;;2.00;;
673;SDS011;319;48.764;9.174;2022-11-21T10:28:56;1.80;;;1.80;;
673;SDS011;319;48.764;9.174;2022-11-21T10:31:28;1.40;;;1.40;;
673;SDS011;319;48.764;9.174;2022-11-21T10:34:01;4.30;;;4.20;;
673;SDS011;319;48.764;9.174;2022-11-21T10:36:29;3.20;;;3.10;;
673;SDS011;319;48.764;9.174;2022-11-21T10:39:03;2.63;;;2.63;;
673;SDS011;319;48.764;9.174;2022-11-21T10:41:39;2.30;;;2.30;;
673;SDS011;319;48.764;9.174;2022-11-21T10:44:14;3.00;;;2.90;;
673;SDS011;319;48.764;9.174;2022-11-21T10:47:12;2.20;;;2.20;;
673;SDS011;319;48.764;9.174;2022-11-21T10:49:51;2.23;;;2.23;;
673;SDS011;319;48.764;9.174;2022-11-21T10:52:24;2.30;;;2.30;;
673;SDS011;319;48.764;9.174;2022-11-21T10:55:04;2.50;;;2.50;;
673;SDS011;319;48.764;9.174;2022-11-21T10:57:35;2.63;;;2.63;;
673;SDS011;319;48.764;9.174;2022-11-21T11:00:14;2.40;;;2.40;;
673;SDS011;319;48.764;9.174;2022-11-21T11:02:58;1.10;;;1.10;;
673;SDS011;319;48.764;9.174;2022-11-21T11:05:31;1.10;;;1.10;;
673;SDS011;319;48.764;9.174;2022-11-21T11:08:00;1.10;;;1.10;;
673;SDS011;319;48.764;9.174;2022-11-21T11:10:30;1.10;;;1.10;;
673;SDS011;319;48.764;9.174;2022-11-21T11:12:58;1.10;;;1.10;;
673;SDS011;319;48.764;9.174;2022-11-21T11:15:53;1.10;;;1.10;;
673;SDS011;319;48.764;9.174;2022-11-21T11:18:25;1.10;;;1.10;;
673;SDS011;319;48.764;9.174;2022-11-21T11:20:52;1.10;;;1.10;;
673;SDS011;319;48.764;9.174;2022-11-21T11:23:33;1.10;;;1.10;;
673;SDS011;319;48.764;9.174;2022-11-21T11:26:00;1.10;;;1.10;;
673;SDS011;319;48.764;9.174;2022-11-21T11:28:32;1.10;;;1.10;;
673;SDS011;319;48.764;9.174;2022-11-21T11:31:00;1.10;;;1.10;;
673;SDS011;319;48.764;9.174;2022-11-21T11:33:30;1.00;;;1.00;;
673;SDS011;319;48.764;9.174;2022-11-21T11:36:04;1.10;;;1.10;;
673;SDS011;319;48.764;9.174;2022-11-21T11:38:47;1.10;;;1.10;;
673;SDS011;319;48.764;9.174;2022-11-21T11:41:31;1.10;;;1.10;;
673;SDS011;319;48.764;9.174;2022-11-21T11:44:40;1.10;;;1.10;;
673;SDS011;319;48.764;9.174;2022-11-21T11:47:32;1.10;;;1.10;;
673;SDS011;319;48.764;9.174;2022-11-21T11:50:09;1.03;;;1.03;;
673;SDS011;319;48.764;9.174;2022-11-21T11:52:42;1.10;;;1.10;;
673;SDS011;319;48.764;9.174;2022-11-21T11:55:16;1.10;;;1.10;;
673;SDS011;319;48.764;9.174;2022-11-21T11:57:47;1.20;;;1.20;;
673;SDS011;319;48.764;9.174;2022-11-21T12:00:21;1.10;;;1.10;;
673;SDS011;319;48.764;9.174;2022-11-21T12:02:57;1.10;;;1.10;;
673;SDS011;319;48.764;9.174;2022-11-21T12:05:30;1.00;;;1.00;;
673;SDS011;319;48.764;9.174;2022-11-21T12:08:02;1.10;;;1.10;;
673;SDS011;319;48.764;9.174;2022-11-21T12:10:36;1.10;;;1.10;;
673;SDS011;319;48.764;9.174;2022-11-21T12:13:22;1.10;;;1.10;;
673;SDS011;319;48.764;9.174;2022-11-21T12:15:51;1.10;;;1.10;;
673;SDS011;319;48.764;9.174;2022-11-21T12:18:25;1.10;;;1.10;;
673;SDS011;319;48.764;9.174;2022-11-21T12:20:59;1.00;;;1.00;;
673;SDS011;319;48.764;9.174;2022-11-21T12:23:30;1.10;;;1.10;;
673;SDS011;319;48.764;9.174;2022-11-21T12:26:04;1.10;;;1.10;;
673;SDS011;319;48.764;9.174;2022-11-21T12:28:45;1.50;;;1.50;;
673;SDS011;319;48.764;9.174;2022-11-21T12:31:22;1.20;;;1.20;;
673;SDS011;319;48.764;9.174;2022-11-21T12:34:01;1.20;;;1.20;;
673;SDS011;319;48.764;9.174;2022-11-21T12:36:38;1.20;;;1.20;;
673;SDS011;319;48.764;9.174;2022-11-21T12:39:28;1.10;;;1.10;;
673;SDS011;319;48.764;9.174;2022-11-21T12:42:20;1.10;;;1.10;;
673;SDS011;319;48.764;9.174;2022-11-21T12:45:25;1.10;;;1.10;;
673;SDS011;319;48.764;9.174;2022-11-21T12:48:03;1.00;;;1.00;;
673;SDS011;319;48.764;9.174;2022-11-21T12:54:45;1.10;;;1.10;;
673;SDS011;319;48.764;9.174;2022-11-21T12:57:25;1.10;;;1.10;;
673;SDS011;319;48.764;9.174;2022-11-21T13:00:10;1.20;;;1.20;;
673;SDS011;319;48.764;9.174;2022-11-21T13:02:47;1.20;;;1.20;;
673;SDS011;319;48.764;9.174;2022-11-21T13:05:26;1.27;;;1.27;;
673;SDS011;319;48.764;9.174;2022-11-21T13:07:58;1.20;;;1.20;;
673;SDS011;319;48.764;9.174;2022-11-21T13:10:27;1.10;;;1.10;;
673;SDS011;319;48.764;9.174;2022-11-21T13:12:57;1.20;;;1.20;;
673;SDS011;319;48.764;9.174;2022-11-21T13:15:33;1.10;;;1.10;;
673;SDS011;319;48.764;9.174;2022-11-21T13:18:12;1.20;;;1.20;;
673;SDS011;319;48.764;9.174;2022-11-21T13:20:49;1.30;;;1.30;;
673;SDS011;319;48.764;9.174;2022-11-21T13:29:07;1.30;;;1.30;;
673;SDS011;319;48.764;9.174;2022-11-21T13:31:36;1.20;;;1.20;;
673;SDS011;319;48.764;9.174;2022-11-21T13:34:03;1.20;;;1.20;;
673;SDS011;319;48.764;9.174;2022-11-21T13:36:35;1.20;;;1.20;;
673;SDS011;319;48.764;9.174;2022-11-21T13:42:12;1.20;;;1.20;;
673;SDS011;319;48.764;9.174;2022-11-21T13:44:58;1.10;;;1.10;;
673;SDS011;319;48.764;9.174;2022-11-21T13:48:17;1.10;;;1.10;;
673;SDS011;319;48.764;9.174;2022-11-21T13:51:10;1.10;;;1.10;;
673;SDS011;319;48.764;9.174;2022-11-21T13:54:00;1.00;;;1.00;;
673;SDS011;319;48.764;9.174;2022-11-21T13:57:11;1.10;;;1.10;;
673;SDS011;319;48.764;9.174;2022-11-21T14:00:12;1.10;;;1.10;;
673;SDS011;319;48.764;9.174;2022-11-21T14:02:52;1.10;;;1.10;;
673;SDS011;319;48.764;9.174;2022-11-21T14:05:45;1.20;;;1.20;;
673;SDS011;319;48.764;9.174;2022-11-21T14:08:23;1.10;;;1.10;;
673;SDS011;319;48.764;9.174;2022-11-21T14:10:53;1.20;;;1.20;;
673;SDS011;319;48.764;9.174;2022-11-21T14:13:22;1.00;;;1.00;;
673;SDS011;319;48.764;9.174;2022-11-21T14:16:02;1.20;;;1.20;;
673;SDS011;319;48.764;9.174;2022-11-21T14:18:37;1.20;;;1.20;;
673;SDS011;319;48.764;9.174;2022-11-21T14:21:04;1.20;;;1.20;;
673;SDS011;319;48.764;9.174;2022-11-21T14:23:33;1.20;;;1.20;;
673;SDS011;319;48.764;9.174;2022-11-21T14:26:00;1.10;;;1.10;;
673;SDS011;319;48.764;9.174;2022-11-21T14:28:30;1.20;;;1.20;;
673;SDS011;319;48.764;9.174;2022-11-21T14:31:00;1.10;;;1.10;;
673;SDS011;319;48.764;9.174;2022-11-21T14:33:29;1.20;;;1.20;;
673;SDS011;319;48.764;9.174;2022-11-21T14:36:03;1.20;;;1.20;;
673;SDS011;319;48.764;9.174;2022-11-21T14:38:33;1.20;;;1.20;;
673;SDS011;319;48.764;9.174;2022-11-21T14:41:17;1.10;;;1.10;;
673;SDS011;319;48.764;9.174;2022-11-21T14:44:02;1.20;;;1.20;;
673;SDS011;319;48.764;9.174;2022-11-21T14:46:33;1.10;;;1.10;;
673;SDS011;319;48.764;9.174;2022-11-21T14:49:09;1.10;;;1.10;;
673;SDS011;319;48.764;9.174;2022-11-21T14:51:46;1.20;;;1.20;;
673;SDS011;319;48.764;9.174;2022-11-21T14:54:15;1.10;;;1.10;;
673;SDS011;319;48.764;9.174;2022-11-21T14:56:45;1.10;;;1.10;;
673;SDS011;319;48.764;9.174;2022-11-21T14:59:15;1.10;;;1.10;;
673;SDS011;319;48.764;9.174;2022-11-21T15:01:54;1.20;;;1.20;;
673;SDS011;319;48.764;9.174;2022-11-21T15:04:28;1.20;;;1.20;;
673;SDS011;319;48.764;9.174;2022-11-21T15:06:56;1.10;;;1.10;;
673;SDS011;319;48.764;9.174;2022-11-21T15:09:23;1.10;;;1.10;;
673;SDS011;319;48.764;9.174;2022-11-21T15:11:51;1.20;;;1.20;;
673;SDS011;319;48.764;9.174;2022-11-21T15:14:25;1.00;;;1.00;;
673;SDS011;319;48.764;9.174;2022-11-21T15:16:57;1.10;;;1.10;;
673;SDS011;319;48.764;9.174;2022-11-21T15:19:28;1.03;;;1.03;;
673;SDS011;319;48.764;9.174;2022-11-21T15:21:56;1.20;;;1.20;;
673;SDS011;319;48.764;9.174;2022-11-21T15:24:28;1.20;;;1.20;;
673;SDS011;319;48.764;9.174;2022-11-21T15:29:59;1.20;;;1.20;;
673;SDS011;319;48.764;9.174;2022-11-21T15:32:32;1.20;;;1.20;;
673;SDS011;319;48.764;9.174;2022-11-21T15:34:58;1.10;;;1.10;;
673;SDS011;319;48.764;9.174;2022-11-21T15:37:46;1.20;;;1.20;;
673;SDS011;319;48.764;9.174;2022-11-21T15:40:15;1.20;;;1.20;;
673;SDS011;319;48.764;9.174;2022-11-21T15:42:44;1.20;;;1.20;;
673;SDS011;319;48.764;9.174;2022-11-21T15:45:20;1.20;;;1.20;;
673;SDS011;319;48.764;9.174;2022-11-21T15:47:50;1.20;;;1.20;;
673;SDS011;319;48.764;9.174;2022-11-21T15:50:17;1.20;;;1.20;;
673;SDS011;319;48.764;9.174;2022-11-21T15:52:47;1.30;;;1.30;;
673;SDS011;319;48.764;9.174;2022-11-21T15:55:18;1.30;;;1.30;;
673;SDS011;319;48.764;9.174;2022-11-21T15:57:46;1.40;;;1.40;;
673;SDS011;319;48.764;9.174;2022-11-21T16:00:13;1.40;;;1.40;;
673;SDS011;319;48.764;9.174;2022-11-21T16:02:41;4.30;;;4.20;;
673;SDS011;319;48.764;9.174;2022-11-21T16:05:11;1.30;;;1.30;;
673;SDS011;319;48.764;9.174;2022-11-21T16:07:39;1.20;;;1.20;;
673;SDS011;319;48.764;9.174;2022-11-21T16:10:07;1.20;;;1.20;;
673;SDS011;319;48.764;9.174;2022-11-21T16:12:34;1.20;;;1.20;;
673;SDS011;319;48.764;9.174;2022-11-21T16:15:01;1.50;;;1.50;;
673;SDS011;319;48.764;9.174;2022-11-21T16:17:28;2.10;;;2.10;;
673;SDS011;319;48.764;9.174;2022-11-21T16:19:55;1.60;;;1.60;;
673;SDS011;319;48.764;9.174;2022-11-21T16:22:23;1.63;;;1.63;;
673;SDS011;319;48.764;9.174;2022-11-21T16:24:50;1.97;;;1.97;;